Time;durP1;ratioP1;P1;durP2;ratioP2;P2;SDS_P1;SDS_P2;PMS_P1;PMS_P2;Temp;Humidity;BMP_temperature;BMP_pressure;BME280_temperature;BME280_humidity;BME280_pressure;Samples;Min_cycle;Max_cycle;Signal;HPM_P1;HPM_P2
2023/01/22 00:00:59;;;;;;;;;;;;;;;0.06;100.00;103518.75;5076069;28;19969;-78
2023/01/22 00:03:25;;;;;;;;;;;;;;;0.06;100.00;103523.91;5094124;28;19935;-78
2023/01/22 00:05:51;;;;;;;;;;;;;;;0.04;100.00;103516.09;5112849;28;19969;-78
2023/01/22 00:08:16;;;;;;;;;;;;;;;0.03;100.00;103505.72;5107355;28;19924;-78
2023/01/22 00:10:47;;;;;;;;;;;;;;;0.02;100.00;103510.00;5093284;28;19912;-78
2023/01/22 00:13:12;;;;;;;;;;;;;;;0.01;100.00;103508.22;5103107;28;19912;-78
2023/01/22 00:15:38;;;;;;;;;;;;;;;0.00;100.00;103509.06;5094123;28;19927;-78
2023/01/22 00:18:03;;;;;;;;;;;;;;;-0.01;100.00;103507.28;5104028;28;19996;-78
2023/01/22 00:20:28;;;;;;;;;;;;;;;-0.03;100.00;103504.63;5090776;28;19965;-78
2023/01/22 00:22:53;;;;;;;;;;;;;;;-0.04;100.00;103501.97;5093452;28;19924;-78
2023/01/22 00:25:19;;;;;;;;;;;;;;;-0.06;100.00;103501.91;5094068;28;19916;-78
2023/01/22 00:27:44;;;;;;;;;;;;;;;-0.06;100.00;103504.47;5100554;28;19987;-78
2023/01/22 00:30:09;;;;;;;;;;;;;;;-0.06;100.00;103501.03;5097875;28;19924;-78
2023/01/22 00:32:35;;;;;;;;;;;;;;;-0.07;100.00;103496.72;5096938;28;19921;-78
2023/01/22 00:35:00;;;;;;;;;;;;;;;-0.08;100.00;103494.94;5090216;28;19926;-78
2023/01/22 00:37:25;;;;;;;;;;;;;;;-0.11;100.00;103493.09;5099082;28;19912;-78
2023/01/22 00:39:50;;;;;;;;;;;;;;;-0.11;100.00;103494.78;5099211;28;19912;-78
2023/01/22 00:42:16;;;;;;;;;;;;;;;-0.11;100.00;103489.63;5100648;28;19923;-78
2023/01/22 00:44:41;;;;;;;;;;;;;;;-0.13;100.00;103489.56;5093018;28;20066;-78
2023/01/22 00:47:06;;;;;;;;;;;;;;;-0.14;100.00;103492.97;5079628;28;19939;-78
2023/01/22 00:49:32;;;;;;;;;;;;;;;-0.15;100.00;103493.75;5083675;28;19924;-78
2023/01/22 00:51:57;;;;;;;;;;;;;;;-0.15;100.00;103492.88;5099490;28;19927;-78
2023/01/22 00:54:22;;;;;;;;;;;;;;;-0.16;100.00;103492.00;5097609;28;19995;-78
2023/01/22 00:56:47;;;;;;;;;;;;;;;-0.16;100.00;103494.59;5079133;28;20196;-78
2023/01/22 00:59:13;;;;;;;;;;;;;;;-0.16;100.00;103499.72;5083242;28;19961;-78
2023/01/22 01:01:38;;;;;;;;;;;;;;;-0.13;100.00;103498.97;5098192;28;19938;-78
2023/01/22 01:04:03;;;;;;;;;;;;;;;-0.15;100.00;103490.31;5096841;28;19930;-78
2023/01/22 01:06:29;;;;;;;;;;;;;;;-0.16;100.00;103486.84;5100581;28;19911;-78
2023/01/22 01:08:54;;;;;;;;;;;;;;;-0.18;100.00;103482.41;5096162;28;19913;-78
2023/01/22 01:11:20;;;;;;;;;;;;;;;-0.17;100.00;103486.78;5093383;28;19970;-78
2023/01/22 01:13:46;;;;;;;;;;;;;;;-0.20;100.00;103483.25;5098687;28;20188;-78
2023/01/22 01:16:13;;;;;;;;;;;;;;;-0.19;100.00;103478.97;5091470;28;19916;-78
2023/01/22 01:18:39;;;;;;;;;;;;;;;-0.17;100.00;103481.63;5098336;28;19908;-78
2023/01/22 01:21:06;;;;;;;;;;;;;;;-0.15;100.00;103478.28;5079200;28;19947;-78
2023/01/22 01:23:31;;;;;;;;;;;;;;;-0.12;100.00;103482.72;5079215;28;19932;-78
2023/01/22 01:25:57;;;;;;;;;;;;;;;-0.08;100.00;103482.03;5089698;28;20089;-78
2023/01/22 01:28:23;;;;;;;;;;;;;;;-0.06;100.00;103483.00;5077890;28;19928;-78
2023/01/22 01:30:48;;;;;;;;;;;;;;;-0.03;100.00;103481.44;5083911;28;19927;-78
2023/01/22 01:33:14;;;;;;;;;;;;;;;0.01;100.00;103479.88;5098887;28;19908;-78
2023/01/22 01:35:39;;;;;;;;;;;;;;;0.05;100.00;103474.06;5096710;28;19991;-78
2023/01/22 01:38:05;;;;;;;;;;;;;;;0.08;100.00;103473.31;5079553;28;19990;-78
2023/01/22 01:40:30;;;;;;;;;;;;;;;0.11;100.00;103473.44;5092405;28;20200;-78
2023/01/22 01:42:55;;;;;;;;;;;;;;;0.12;100.00;103460.63;5078652;28;19921;-78
2023/01/22 01:45:23;;;;;;;;;;;;;;;0.14;100.00;103471.88;5077688;28;19931;-78
2023/01/22 01:47:52;;;;;;;;;;;;;;;0.15;100.00;103468.50;5079304;28;19952;-78
2023/01/22 01:50:18;;;;;;;;;;;;;;;0.15;100.00;103472.78;5088953;28;20231;-78
2023/01/22 01:52:44;;;;;;;;;;;;;;;0.19;100.00;103466.94;5099158;28;20107;-78
2023/01/22 01:55:09;;;;;;;;;;;;;;;0.21;100.00;103461.88;5090755;28;19916;-78
2023/01/22 01:57:35;;;;;;;;;;;;;;;0.22;100.00;103459.38;5090938;28;20255;-78
2023/01/22 02:00:03;;;;;;;;;;;;;;;0.24;100.00;103454.25;5098731;28;19912;-78
2023/01/22 02:05:46;;;;;;;;;;;;;;;0.25;100.00;103456.03;5059982;28;20255;-77
2023/01/22 02:08:11;;;;;;;;;;;;;;;0.27;100.00;103449.22;5078548;28;19912;-77
2023/01/22 02:10:37;;;;;;;;;;;;;;;0.29;100.00;103448.50;5076543;28;19924;-77
2023/01/22 02:13:06;;;;;;;;;;;;;;;0.29;100.00;103445.94;5085610;28;19924;-77
2023/01/22 02:15:31;;;;;;;;;;;;;;;0.32;100.00;103448.63;5078236;28;19916;-77
2023/01/22 02:17:56;;;;;;;;;;;;;;;0.33;100.00;103440.09;5085860;28;20245;-77
2023/01/22 02:20:22;;;;;;;;;;;;;;;0.34;100.00;103435.81;5078048;28;19997;-77
2023/01/22 02:22:48;;;;;;;;;;;;;;;0.35;100.00;103432.41;5085135;28;19960;-77
2023/01/22 02:25:14;;;;;;;;;;;;;;;0.35;100.00;103427.25;5077458;28;19924;-77
2023/01/22 02:27:39;;;;;;;;;;;;;;;0.34;100.00;103428.94;5082823;28;19912;-77
2023/01/22 02:30:05;;;;;;;;;;;;;;;0.35;100.00;103437.56;5079646;28;19916;-77
2023/01/22 02:32:30;;;;;;;;;;;;;;;0.35;100.00;103433.28;5079893;28;19928;-77
2023/01/22 02:34:55;;;;;;;;;;;;;;;0.35;100.00;103435.00;5080070;28;19925;-77
2023/01/22 02:37:21;;;;;;;;;;;;;;;0.37;100.00;103430.78;5078193;28;20193;-77
2023/01/22 02:39:46;;;;;;;;;;;;;;;0.37;100.00;103428.22;5082239;28;19916;-77
2023/01/22 02:42:11;;;;;;;;;;;;;;;0.38;100.00;103427.38;5079905;28;19924;-77
2023/01/22 02:44:37;;;;;;;;;;;;;;;0.39;100.00;103424.00;5075625;28;19983;-77
2023/01/22 02:47:03;;;;;;;;;;;;;;;0.40;100.00;103430.03;5089310;28;20185;-77
2023/01/22 02:49:28;;;;;;;;;;;;;;;0.43;100.00;103425.00;5076845;28;19916;-77
2023/01/22 02:51:53;;;;;;;;;;;;;;;0.44;100.00;103431.91;5078631;28;19922;-77
2023/01/22 02:54:18;;;;;;;;;;;;;;;0.45;100.00;103419.09;5077029;28;20385;-77
2023/01/22 02:56:44;;;;;;;;;;;;;;;0.47;100.00;103422.59;5088556;28;19927;-77
2023/01/22 02:59:09;;;;;;;;;;;;;;;0.48;100.00;103421.81;5077812;28;20113;-77
2023/01/22 03:01:34;;;;;;;;;;;;;;;0.51;100.00;103419.38;5075405;28;19917;-77
2023/01/22 03:04:09;;;;;;;;;;;;;;;0.55;100.00;103431.56;5079881;28;20243;-77
2023/01/22 03:06:35;;;;;;;;;;;;;;;0.54;100.00;103427.22;5073986;28;20231;-77
2023/01/22 03:09:00;;;;;;;;;;;;;;;0.56;100.00;103432.44;5079611;28;19925;-77
2023/01/22 03:11:27;;;;;;;;;;;;;;;0.56;100.00;103433.34;5075209;28;20234;-77
2023/01/22 03:22:06;;;;;;;;;;;;;;;0.64;100.00;103417.28;5095374;28;19915;-78
2023/01/22 03:24:31;;;;;;;;;;;;;;;0.66;100.00;103411.38;5085042;28;19928;-78
2023/01/22 03:26:56;;;;;;;;;;;;;;;0.69;100.00;103408.94;5076880;28;20227;-78
2023/01/22 03:29:21;;;;;;;;;;;;;;;0.69;100.00;103415.78;5095894;28;19951;-78
2023/01/22 03:31:47;;;;;;;;;;;;;;;0.69;100.00;103410.63;5097271;28;19931;-78
2023/01/22 03:34:16;;;;;;;;;;;;;;;0.68;100.00;103409.75;5094854;28;19912;-78
2023/01/22 03:36:41;;;;;;;;;;;;;;;0.68;100.00;103411.47;5082801;28;19920;-78
2023/01/22 03:39:07;;;;;;;;;;;;;;;0.66;100.00;103410.50;5094361;28;19931;-78
2023/01/22 03:41:32;;;;;;;;;;;;;;;0.65;99.71;103406.16;5086976;28;20034;-78
2023/01/22 03:44:00;;;;;;;;;;;;;;;0.67;100.00;103400.22;5081922;28;20003;-78
2023/01/22 03:46:26;;;;;;;;;;;;;;;0.69;100.00;103401.22;5077777;28;20139;-78
2023/01/22 03:48:51;;;;;;;;;;;;;;;0.68;100.00;103398.56;5082348;28;19916;-78
2023/01/22 03:51:17;;;;;;;;;;;;;;;0.69;100.00;103395.13;5079529;28;19927;-78
2023/01/22 03:53:43;;;;;;;;;;;;;;;0.69;100.00;103393.47;5083131;28;19916;-78
2023/01/22 03:56:12;;;;;;;;;;;;;;;0.69;99.62;103390.88;5077991;28;20239;-78
2023/01/22 03:58:37;;;;;;;;;;;;;;;0.71;99.96;103396.09;5086657;28;19916;-78
2023/01/22 04:01:13;;;;;;;;;;;;;;;0.71;100.00;103397.00;5096849;28;19951;-78
2023/01/22 04:03:39;;;;;;;;;;;;;;;0.71;99.76;103396.09;5092983;28;20081;-78
2023/01/22 04:06:05;;;;;;;;;;;;;;;0.69;98.86;103392.56;5062888;28;19927;-78
2023/01/22 04:08:32;;;;;;;;;;;;;;;0.69;98.60;103392.56;5083883;28;19927;-78
2023/01/22 04:10:58;;;;;;;;;;;;;;;0.68;97.89;103401.13;5084474;28;19919;-78
2023/01/22 04:13:24;;;;;;;;;;;;;;;0.68;97.77;103390.81;5088509;28;19931;-78
2023/01/22 04:15:49;;;;;;;;;;;;;;;0.70;98.36;103391.75;5087256;28;19943;-78
2023/01/22 04:18:14;;;;;;;;;;;;;;;0.71;98.36;103391.81;5084170;28;20231;-78
2023/01/22 04:20:39;;;;;;;;;;;;;;;0.73;98.41;103381.56;5089838;28;19912;-78
2023/01/22 04:23:05;;;;;;;;;;;;;;;0.75;99.02;103383.38;5091722;28;19920;-78
2023/01/22 04:25:31;;;;;;;;;;;;;;;0.77;99.00;103388.63;5095354;28;20220;-78
2023/01/22 04:27:56;;;;;;;;;;;;;;;0.79;99.14;103380.94;5087101;28;19920;-78
2023/01/22 04:30:21;;;;;;;;;;;;;;;0.81;99.33;103381.88;5084740;28;19963;-78
2023/01/22 04:32:46;;;;;;;;;;;;;;;0.83;99.58;103386.28;5090250;28;20235;-78
2023/01/22 04:35:12;;;;;;;;;;;;;;;0.84;99.72;103384.59;5086345;28;19916;-78
2023/01/22 04:37:37;;;;;;;;;;;;;;;0.83;99.01;103385.41;5080122;28;19944;-78
2023/01/22 04:40:04;;;;;;;;;;;;;;;0.82;98.49;103392.28;5087798;28;19943;-78
2023/01/22 04:42:30;;;;;;;;;;;;;;;0.81;98.02;103384.47;5096306;28;19916;-78
2023/01/22 04:44:55;;;;;;;;;;;;;;;0.80;98.25;103383.59;5083662;28;20253;-78
2023/01/22 04:47:21;;;;;;;;;;;;;;;0.82;98.77;103381.94;5098043;28;19924;-78
2023/01/22 04:49:46;;;;;;;;;;;;;;;0.85;99.10;103379.47;5091861;28;19978;-78
2023/01/22 04:52:11;;;;;;;;;;;;;;;0.86;99.61;103381.25;5099019;28;19923;-78
2023/01/22 04:54:36;;;;;;;;;;;;;;;0.85;98.84;103378.59;5089494;28;19912;-78
2023/01/22 04:57:02;;;;;;;;;;;;;;;0.87;98.77;103376.97;5086460;28;20092;-78
2023/01/22 04:59:27;;;;;;;;;;;;;;;0.85;97.99;103383.75;5079620;28;19952;-78
2023/01/22 05:01:52;;;;;;;;;;;;;;;0.86;98.14;103378.66;5087605;28;19924;-78
2023/01/22 05:04:20;;;;;;;;;;;;;;;0.85;98.35;103379.47;5089832;28;19920;-78
2023/01/22 05:06:45;;;;;;;;;;;;;;;0.85;98.05;103366.56;5094322;28;19969;-78
2023/01/22 05:09:11;;;;;;;;;;;;;;;0.85;97.92;103370.84;5080807;28;19916;-78
2023/01/22 05:11:36;;;;;;;;;;;;;;;0.85;98.33;103369.16;5080093;28;20212;-78
2023/01/22 05:14:01;;;;;;;;;;;;;;;0.86;98.45;103375.22;5088800;28;20210;-78
2023/01/22 05:16:26;;;;;;;;;;;;;;;0.85;98.29;103374.31;5094000;28;19991;-78
2023/01/22 05:18:52;;;;;;;;;;;;;;;0.88;98.41;103371.00;5081731;28;19939;-78
2023/01/22 05:21:17;;;;;;;;;;;;;;;0.89;98.75;103372.72;5091022;28;20030;-78
2023/01/22 05:23:43;;;;;;;;;;;;;;;0.89;98.99;103380.47;5083794;28;19995;-78
2023/01/22 05:26:08;;;;;;;;;;;;;;;0.90;99.23;103383.13;5084658;28;19930;-78
2023/01/22 05:28:34;;;;;;;;;;;;;;;0.91;99.38;103384.00;5098408;28;19962;-78
2023/01/22 05:30:59;;;;;;;;;;;;;;;0.92;99.49;103378.03;5098779;28;19931;-78
2023/01/22 05:33:27;;;;;;;;;;;;;;;0.94;99.66;103384.13;5083902;28;19920;-78
2023/01/22 05:35:59;;;;;;;;;;;;;;;0.93;99.72;103377.22;5090362;28;19982;-78
2023/01/22 05:38:25;;;;;;;;;;;;;;;0.93;99.72;103374.63;5082738;28;19927;-78
2023/01/22 05:40:51;;;;;;;;;;;;;;;0.95;99.88;103373.88;5080842;28;20088;-78
2023/01/22 05:43:16;;;;;;;;;;;;;;;0.96;99.84;103382.47;5085992;28;20121;-78
2023/01/22 05:45:41;;;;;;;;;;;;;;;0.98;99.97;103385.13;5087317;28;19912;-78
2023/01/22 05:48:06;;;;;;;;;;;;;;;0.98;100.00;103385.13;5073985;28;20214;-78
2023/01/22 05:50:32;;;;;;;;;;;;;;;0.98;100.00;103386.00;5098373;28;19908;-78
2023/01/22 05:52:57;;;;;;;;;;;;;;;0.99;100.00;103386.91;5083158;28;19927;-78
2023/01/22 05:55:23;;;;;;;;;;;;;;;1.02;100.00;103384.41;5092973;28;19991;-77
2023/01/22 05:57:48;;;;;;;;;;;;;;;1.02;100.00;103389.59;5087673;28;19913;-78
2023/01/22 06:00:14;;;;;;;;;;;;;;;1.00;100.00;103394.72;5090388;28;19920;-78
2023/01/22 06:02:39;;;;;;;;;;;;;;;0.99;100.00;103400.69;5083025;28;19928;-78
2023/01/22 06:05:05;;;;;;;;;;;;;;;1.00;100.00;103397.28;5078708;28;19924;-78
2023/01/22 06:07:30;;;;;;;;;;;;;;;1.01;100.00;103395.59;5089052;28;19951;-78
2023/01/22 06:09:55;;;;;;;;;;;;;;;1.01;100.00;103403.31;5090914;28;19924;-78
2023/01/22 06:12:20;;;;;;;;;;;;;;;1.01;100.00;103401.63;5081011;28;19928;-78
2023/01/22 06:14:46;;;;;;;;;;;;;;;1.01;100.00;103404.19;5084116;28;19924;-78
2023/01/22 06:17:11;;;;;;;;;;;;;;;0.99;99.88;103402.38;5086552;28;19947;-79
2023/01/22 06:19:36;;;;;;;;;;;;;;;0.98;99.22;103404.06;5084809;28;20278;-78
2023/01/22 06:22:02;;;;;;;;;;;;;;;0.97;98.95;103407.47;5084630;28;19922;-78
2023/01/22 06:24:27;;;;;;;;;;;;;;;0.94;97.88;103404.78;5088385;28;19928;-78
2023/01/22 06:26:52;;;;;;;;;;;;;;;0.92;97.72;103411.56;5089602;28;20131;-78
2023/01/22 06:29:17;;;;;;;;;;;;;;;0.89;96.56;103411.44;5088796;28;19930;-78
2023/01/22 06:31:43;;;;;;;;;;;;;;;0.86;95.97;103404.47;5088642;28;19958;-78
2023/01/22 06:34:08;;;;;;;;;;;;;;;0.85;96.45;103404.41;5079711;28;20180;-78
2023/01/22 06:36:33;;;;;;;;;;;;;;;0.83;96.16;103406.03;5081191;28;19983;-78
2023/01/22 06:38:59;;;;;;;;;;;;;;;0.81;95.43;103412.84;5079119;28;19920;-78
2023/01/22 06:41:24;;;;;;;;;;;;;;;0.78;95.17;103403.25;5088795;28;19916;-78
2023/01/22 06:43:49;;;;;;;;;;;;;;;0.76;95.16;103398.06;5094471;28;19920;-78
2023/01/22 06:46:14;;;;;;;;;;;;;;;0.74;95.13;103402.25;5084824;28;20278;-78
2023/01/22 06:48:42;;;;;;;;;;;;;;;0.73;94.99;103402.22;5090170;28;19912;-78
2023/01/22 06:51:07;;;;;;;;;;;;;;;0.70;94.82;103402.94;5077447;28;20148;-78
2023/01/22 06:53:33;;;;;;;;;;;;;;;0.70;95.11;103404.66;5081720;28;19927;-78
2023/01/22 06:55:59;;;;;;;;;;;;;;;0.68;95.09;103403.72;5080150;28;19931;-78
2023/01/22 06:58:24;;;;;;;;;;;;;;;0.68;95.22;103395.97;5077891;28;20107;-78
2023/01/22 07:00:49;;;;;;;;;;;;;;;0.67;95.22;103395.06;5079859;28;19975;-78
2023/01/22 07:03:14;;;;;;;;;;;;;;;0.69;95.54;103398.63;5085274;28;20309;-78
2023/01/22 07:05:40;;;;;;;;;;;;;;;0.71;95.89;103396.09;5089330;28;20119;-78
2023/01/22 07:08:05;;;;;;;;;;;;;;;0.72;96.27;103400.44;5097469;28;19920;-78
2023/01/22 07:10:30;;;;;;;;;;;;;;;0.73;95.93;103397.06;5086156;28;19920;-78
2023/01/22 07:12:57;;;;;;;;;;;;;;;0.71;95.17;103398.66;5083335;28;19995;-78
2023/01/22 07:15:23;;;;;;;;;;;;;;;0.70;95.38;103402.94;5084737;28;19931;-78
2023/01/22 07:17:51;;;;;;;;;;;;;;;0.68;95.08;103398.56;5097476;28;19916;-78
2023/01/22 07:20:18;;;;;;;;;;;;;;;0.69;95.08;103397.72;5090268;28;20137;-78
2023/01/22 07:22:43;;;;;;;;;;;;;;;0.71;95.34;103397.00;5077613;28;19924;-78
2023/01/22 07:25:08;;;;;;;;;;;;;;;0.73;95.72;103399.63;5084280;28;19919;-78
2023/01/22 07:27:34;;;;;;;;;;;;;;;0.76;95.78;103394.56;5092999;28;19924;-78
2023/01/22 07:30:00;;;;;;;;;;;;;;;0.76;95.57;103404.91;5097121;28;20225;-78
2023/01/22 07:32:25;;;;;;;;;;;;;;;0.77;95.37;103401.50;5096487;28;19931;-78
2023/01/22 07:34:50;;;;;;;;;;;;;;;0.78;95.57;103403.25;5087504;28;20349;-78
2023/01/22 07:37:16;;;;;;;;;;;;;;;0.80;95.70;103411.06;5086586;28;19916;-78
2023/01/22 07:39:41;;;;;;;;;;;;;;;0.79;95.61;103412.78;5080961;28;19917;-78
2023/01/22 07:42:06;;;;;;;;;;;;;;;0.79;95.59;103412.78;5082917;28;19923;-78
2023/01/22 07:44:31;;;;;;;;;;;;;;;0.80;95.50;103417.13;5084337;28;19919;-78
2023/01/22 07:46:57;;;;;;;;;;;;;;;0.81;95.92;103425.75;5094608;28;19961;-78
2023/01/22 07:49:22;;;;;;;;;;;;;;;0.85;96.18;103432.78;5088741;28;20371;-78
2023/01/22 07:51:47;;;;;;;;;;;;;;;0.86;96.32;103435.44;5081769;28;19947;-78
2023/01/22 07:54:12;;;;;;;;;;;;;;;0.87;96.33;103438.88;5082038;28;20159;-78
2023/01/22 07:56:38;;;;;;;;;;;;;;;0.86;95.88;103435.44;5095315;28;19924;-78
2023/01/22 07:59:04;;;;;;;;;;;;;;;0.88;96.17;103445.81;5084541;28;19926;-78
2023/01/22 08:01:30;;;;;;;;;;;;;;;0.87;95.92;103438.88;5088406;28;19920;-78
2023/01/22 08:03:56;;;;;;;;;;;;;;;0.89;95.82;103434.66;5081384;28;19935;-78
2023/01/22 08:06:21;;;;;;;;;;;;;;;0.88;95.48;103438.06;5081214;28;20227;-78
2023/01/22 08:08:47;;;;;;;;;;;;;;;0.89;95.32;103442.41;5093241;28;20026;-78
2023/01/22 08:11:12;;;;;;;;;;;;;;;0.88;94.64;103448.41;5087274;28;20116;-78
2023/01/22 08:13:38;;;;;;;;;;;;;;;0.88;94.48;103441.53;5083527;28;20348;-78
2023/01/22 08:16:03;;;;;;;;;;;;;;;0.89;95.06;103427.81;5089176;28;20295;-78
2023/01/22 08:18:28;;;;;;;;;;;;;;;0.91;95.25;103438.19;5084212;28;19925;-78
2023/01/22 08:20:54;;;;;;;;;;;;;;;0.88;93.84;103441.53;5097600;28;19912;-78
2023/01/22 08:23:19;;;;;;;;;;;;;;;0.86;92.95;103444.88;5092187;28;19934;-78
2023/01/22 08:25:44;;;;;;;;;;;;;;;0.87;93.16;103441.47;5089454;28;19924;-78
2023/01/22 08:28:09;;;;;;;;;;;;;;;0.86;93.57;103450.91;5084388;28;19931;-78
2023/01/22 08:30:35;;;;;;;;;;;;;;;0.85;93.70;103445.69;5079797;28;19927;-78
2023/01/22 08:33:03;;;;;;;;;;;;;;;0.85;93.86;103454.28;5085717;28;19920;-78
2023/01/22 08:35:29;;;;;;;;;;;;;;;0.86;93.79;103447.47;5091791;28;19921;-78
2023/01/22 08:37:57;;;;;;;;;;;;;;;0.84;93.47;103439.66;5083855;28;19920;-78
2023/01/22 08:40:22;;;;;;;;;;;;;;;0.84;93.23;103456.84;5086282;28;20000;-78
2023/01/22 08:42:51;;;;;;;;;;;;;;;0.83;93.62;103450.78;5092973;28;19924;-78
2023/01/22 08:45:16;;;;;;;;;;;;;;;0.85;94.14;103450.84;5097931;28;19927;-78
2023/01/22 08:47:41;;;;;;;;;;;;;;;0.85;94.16;103456.00;5078069;28;19928;-77
2023/01/22 08:50:07;;;;;;;;;;;;;;;0.83;93.78;103457.63;5089642;28;20015;-78
2023/01/22 08:52:32;;;;;;;;;;;;;;;0.84;94.06;103464.56;5078213;28;19968;-78
2023/01/22 08:54:57;;;;;;;;;;;;;;;0.82;93.61;103459.34;5083274;28;19925;-77
2023/01/22 08:57:23;;;;;;;;;;;;;;;0.80;93.32;103468.72;5080173;28;19926;-77
2023/01/22 08:59:48;;;;;;;;;;;;;;;0.81;93.43;103472.19;5092727;28;19916;-77
2023/01/22 09:02:13;;;;;;;;;;;;;;;0.81;93.69;103467.03;5087158;28;20123;-78
2023/01/22 09:04:39;;;;;;;;;;;;;;;0.80;93.61;103462.66;5091678;28;19966;-78
2023/01/22 09:07:04;;;;;;;;;;;;;;;0.80;93.65;103462.66;5083821;28;19916;-78
2023/01/22 09:09:29;;;;;;;;;;;;;;;0.80;94.11;103458.41;5084211;28;19935;-78
2023/01/22 09:11:54;;;;;;;;;;;;;;;0.82;94.22;103469.66;5075842;28;19955;-78
2023/01/22 09:14:20;;;;;;;;;;;;;;;0.81;94.17;103464.44;5080836;28;19916;-78
2023/01/22 09:16:45;;;;;;;;;;;;;;;0.81;94.13;103452.41;5077217;28;19956;-78
2023/01/22 09:19:10;;;;;;;;;;;;;;;0.82;94.46;103464.50;5094387;28;19916;-78
2023/01/22 09:21:36;;;;;;;;;;;;;;;0.82;94.54;103461.94;5079350;28;20188;-77
2023/01/22 09:24:02;;;;;;;;;;;;;;;0.84;94.52;103470.59;5077181;28;19943;-77
2023/01/22 09:26:27;;;;;;;;;;;;;;;0.84;94.49;103475.75;5082693;28;19924;-77
2023/01/22 09:28:52;;;;;;;;;;;;;;;0.84;94.83;103478.34;5079767;28;19916;-77
2023/01/22 09:31:17;;;;;;;;;;;;;;;0.82;94.79;103477.41;5082587;28;19925;-78
2023/01/22 09:33:43;;;;;;;;;;;;;;;0.81;94.77;103473.06;5085935;28;19923;-78
2023/01/22 09:36:15;;;;;;;;;;;;;;;0.81;94.93;103479.91;5089806;28;20255;-78
2023/01/22 09:38:40;;;;;;;;;;;;;;;0.80;94.91;103481.63;5096652;28;19927;-77
2023/01/22 09:41:12;;;;;;;;;;;;;;;0.81;95.23;103480.78;5097967;28;19912;-77
2023/01/22 09:43:50;;;;;;;;;;;;;;;0.81;95.21;103485.94;5079577;28;20220;-77
2023/01/22 09:46:22;;;;;;;;;;;;;;;0.80;94.68;103480.72;5095759;28;19950;-77
2023/01/22 09:48:51;;;;;;;;;;;;;;;0.76;93.63;103488.34;5092264;28;19958;-77
2023/01/22 09:51:16;;;;;;;;;;;;;;;0.77;93.80;103486.66;5076941;28;19947;-77
2023/01/22 09:53:46;;;;;;;;;;;;;;;0.77;93.93;103494.38;5078671;28;20242;-77
2023/01/22 09:56:16;;;;;;;;;;;;;;;0.77;94.29;103496.97;5087258;28;19923;-78
2023/01/22 09:58:42;;;;;;;;;;;;;;;0.77;94.82;103495.25;5080890;28;20156;-78
2023/01/22 10:01:07;;;;;;;;;;;;;;;0.75;94.60;103494.31;5097929;28;19924;-78
2023/01/22 10:03:39;;;;;;;;;;;;;;;0.75;94.34;103496.91;5090475;28;20096;-78
2023/01/22 10:06:12;;;;;;;;;;;;;;;0.75;94.07;103502.06;5091489;28;20228;-78
2023/01/22 10:08:43;;;;;;;;;;;;;;;0.74;93.77;103491.66;5082267;28;19912;-78
2023/01/22 10:11:09;;;;;;;;;;;;;;;0.74;93.57;103489.97;5079834;28;19927;-78
2023/01/22 10:13:35;;;;;;;;;;;;;;;0.75;93.95;103489.16;5093484;28;20145;-78
2023/01/22 10:16:01;;;;;;;;;;;;;;;0.77;94.61;103486.66;5088167;28;19924;-78
2023/01/22 10:18:36;;;;;;;;;;;;;;;0.76;93.97;103490.03;5090659;28;20227;-78
2023/01/22 10:21:03;;;;;;;;;;;;;;;0.77;94.08;103479.78;5088460;28;19908;-78
2023/01/22 10:23:30;;;;;;;;;;;;;;;0.80;94.65;103481.63;5096456;28;20180;-78
2023/01/22 10:26:16;;;;;;;;;;;;;;;0.83;95.06;103471.41;5078316;28;19958;-78
2023/01/22 10:28:43;;;;;;;;;;;;;;;0.87;95.47;103470.72;5096275;28;19915;-78
2023/01/22 10:31:19;;;;;;;;;;;;;;;0.91;95.28;103477.78;5095159;28;19912;-78
2023/01/22 10:33:45;;;;;;;;;;;;;;;0.92;95.03;103469.22;5096707;28;19932;-78
2023/01/22 10:36:11;;;;;;;;;;;;;;;0.94;94.63;103472.72;5094435;28;20162;-78
2023/01/22 10:38:37;;;;;;;;;;;;;;;0.97;94.74;103476.28;5097128;28;19947;-78
2023/01/22 10:41:02;;;;;;;;;;;;;;;0.98;94.11;103480.59;5086230;28;19936;-78
2023/01/22 10:43:32;;;;;;;;;;;;;;;0.99;94.68;103472.94;5076190;28;19928;-77
2023/01/22 10:46:05;;;;;;;;;;;;;;;1.02;94.20;103479.91;5079932;28;19987;-78
2023/01/22 10:48:31;;;;;;;;;;;;;;;1.02;93.47;103487.66;5069114;28;19948;-78
2023/01/22 10:51:11;;;;;;;;;;;;;;;0.99;93.02;103485.84;5077443;28;19943;-78
2023/01/22 10:53:38;;;;;;;;;;;;;;;1.01;93.39;103478.16;5072456;28;19983;-78
2023/01/22 10:56:06;;;;;;;;;;;;;;;1.02;93.67;103478.22;5082546;28;19916;-78
2023/01/22 10:58:33;;;;;;;;;;;;;;;1.01;92.91;103480.75;5073374;28;20174;-78
2023/01/22 11:01:00;;;;;;;;;;;;;;;1.00;93.39;103474.72;5058247;28;19920;-78
2023/01/22 11:03:30;;;;;;;;;;;;;;;1.00;93.81;103478.97;5059524;28;19925;-78
2023/01/22 11:05:58;;;;;;;;;;;;;;;0.99;93.85;103474.66;5073120;28;20862;-78
2023/01/22 11:08:29;;;;;;;;;;;;;;;0.99;93.65;103472.06;5053494;28;19921;-78
2023/01/22 11:10:56;;;;;;;;;;;;;;;1.00;93.92;103468.66;5069902;28;19916;-78
2023/01/22 11:13:30;;;;;;;;;;;;;;;1.01;93.96;103467.84;5064076;28;19920;-78
2023/01/22 11:15:55;;;;;;;;;;;;;;;0.98;93.36;103455.69;5062440;28;19920;-78
2023/01/22 11:18:30;;;;;;;;;;;;;;;0.99;93.52;103459.16;5067994;28;20097;-78
2023/01/22 11:20:56;;;;;;;;;;;;;;;0.98;93.75;103453.09;5072064;28;19924;-78
2023/01/22 11:23:28;;;;;;;;;;;;;;;1.00;93.86;103454.06;5060309;28;20006;-78
2023/01/22 11:26:15;;;;;;;;;;;;;;;1.00;94.10;103460.91;5084030;28;19948;-78
2023/01/22 11:29:03;;;;;;;;;;;;;;;1.00;93.70;103448.91;5066036;28;19920;-78
2023/01/22 11:31:37;;;;;;;;;;;;;;;1.00;93.72;103448.91;5067158;28;20212;-78
2023/01/22 11:34:06;;;;;;;;;;;;;;;1.01;94.16;103445.50;5060808;28;20193;-78
2023/01/22 11:36:53;;;;;;;;;;;;;;;1.03;94.79;103446.44;5070746;28;19920;-78
2023/01/22 11:39:22;;;;;;;;;;;;;;;1.05;95.30;103444.78;5067467;28;19960;-78
2023/01/22 11:42:01;;;;;;;;;;;;;;;1.06;94.63;103446.56;5075381;28;20015;-78
2023/01/22 11:44:42;;;;;;;;;;;;;;;1.09;94.60;103450.94;5070416;28;19962;-78
2023/01/22 11:47:13;;;;;;;;;;;;;;;1.12;95.15;103441.63;5073138;28;20162;-78
2023/01/22 11:49:55;;;;;;;;;;;;;;;1.15;94.96;103443.47;5070519;28;19912;-78
2023/01/22 11:52:38;;;;;;;;;;;;;;;1.17;94.99;103444.41;5066195;28;19925;-78
2023/01/22 11:55:17;;;;;;;;;;;;;;;1.19;94.81;103447.06;5069696;28;19954;-78
2023/01/22 11:57:47;;;;;;;;;;;;;;;1.21;95.17;103445.41;5087416;28;20135;-78
2023/01/22 12:00:21;;;;;;;;;;;;;;;1.24;95.22;103449.00;5073997;28;19912;-78
2023/01/22 12:03:06;;;;;;;;;;;;;;;1.24;94.83;103435.22;5069678;28;19921;-78
2023/01/22 12:05:32;;;;;;;;;;;;;;;1.26;94.54;103443.91;5053304;28;20176;-78
2023/01/22 12:08:02;;;;;;;;;;;;;;;1.27;94.77;103438.78;5075951;28;19920;-78
2023/01/22 12:10:27;;;;;;;;;;;;;;;1.29;95.00;103437.16;5058505;28;19920;-78
2023/01/22 12:13:05;;;;;;;;;;;;;;;1.30;94.89;103431.16;5062062;28;20289;-78
2023/01/22 12:15:36;;;;;;;;;;;;;;;1.33;94.90;103433.88;5073257;28;20020;-78
2023/01/22 12:18:08;;;;;;;;;;;;;;;1.34;94.64;103430.44;5073861;28;20243;-78
2023/01/22 12:20:48;;;;;;;;;;;;;;;1.35;94.18;103436.53;5070655;28;19916;-78
2023/01/22 12:23:16;;;;;;;;;;;;;;;1.37;94.79;103431.41;5074502;28;19932;-78
2023/01/22 12:25:50;;;;;;;;;;;;;;;1.39;95.16;103434.94;5066055;28;19932;-78
2023/01/22 12:28:18;;;;;;;;;;;;;;;1.38;94.69;103436.63;5071556;28;20268;-78
2023/01/22 12:30:49;;;;;;;;;;;;;;;1.41;94.64;103429.00;5076163;28;19916;-78
2023/01/22 12:33:18;;;;;;;;;;;;;;;1.42;94.85;103430.78;5070936;28;20395;-78
2023/01/22 12:35:43;;;;;;;;;;;;;;;1.42;94.44;103435.94;5069080;28;20158;-78
2023/01/22 12:38:09;;;;;;;;;;;;;;;1.42;94.37;103428.19;5079250;28;19924;-78
2023/01/22 12:40:47;;;;;;;;;;;;;;;1.43;94.57;103423.91;5076284;28;19998;-78
2023/01/22 12:43:13;;;;;;;;;;;;;;;1.45;94.77;103425.69;5072496;28;19952;-78
2023/01/22 12:45:47;;;;;;;;;;;;;;;1.46;94.67;103426.63;5076894;28;19982;-79
2023/01/22 12:48:15;;;;;;;;;;;;;;;1.45;94.51;103424.84;5079131;28;19928;-78
2023/01/22 12:50:47;;;;;;;;;;;;;;;1.47;94.68;103423.19;5075753;28;20342;-78
2023/01/22 12:53:22;;;;;;;;;;;;;;;1.48;94.97;103415.50;5072693;28;19928;-78